Time;durP1;ratioP1;P1;durP2;ratioP2;P2;SDS_P1;SDS_P2;PMS_P1;PMS_P2;Temp;Humidity;BMP_temperature;BMP_pressure;BME280_temperature;BME280_humidity;BME280_pressure;Samples;Min_cycle;Max_cycle;Signal;HPM_P1;HPM_P2
2022/10/03 00:00:00;;;;;;;5.93;4.65;;;;;;;11.93;82.74;101524.78;4146422;28;20083;-61
2022/10/03 00:02:32;;;;;;;7.78;4.47;;;;;;;11.95;83.14;101525.69;4164087;28;20039;-61
2022/10/03 00:04:57;;;;;;;5.47;4.45;;;;;;;11.98;82.99;101528.38;4156472;28;20057;-61
2022/10/03 00:07:10;;;;;;;6.82;4.70;;;;;;;11.97;82.82;101525.72;4143614;28;20527;-61
2022/10/03 00:09:34;;;;;;;6.95;4.43;;;;;;;12.00;82.96;101525.81;4149063;28;20045;-61
2022/10/03 00:11:51;;;;;;;6.47;4.70;;;;;;;12.02;82.89;101529.34;4157076;28;20491;-62
2022/10/03 00:14:00;;;;;;;4.55;3.60;;;;;;;12.03;83.25;101528.47;4149371;28;20041;-61
2022/10/03 00:16:13;;;;;;;7.10;4.57;;;;;;;12.02;83.18;101527.63;4136372;28;20038;-61
2022/10/03 00:18:33;;;;;;;12.95;4.93;;;;;;;12.04;83.38;101525.91;4155108;28;20063;-61
2022/10/03 00:20:48;;;;;;;8.43;5.50;;;;;;;12.05;83.17;101521.59;4163878;28;20041;-61
2022/10/03 00:22:55;;;;;;;;;;;;;;;11.95;83.85;101535.25;4146635;28;20120;-61
2022/10/03 00:25:18;;;;;;;6.28;4.60;;;;;;;12.00;83.97;101536.22;4161086;28;19944;-61
2022/10/03 00:27:33;;;;;;;7.50;5.50;;;;;;;12.02;83.50;101542.38;4155785;28;20033;-61
2022/10/03 00:29:50;;;;;;;8.43;5.68;;;;;;;12.08;83.72;101539.06;4146173;28;20534;-61
2022/10/03 00:32:09;;;;;;;7.55;5.60;;;;;;;12.12;83.50;101552.19;4144756;28;20439;-61
2022/10/03 00:34:25;;;;;;;7.38;4.90;;;;;;;12.10;83.77;101545.19;4154563;28;20034;-61
2022/10/03 00:36:42;;;;;;;9.77;6.60;;;;;;;12.12;83.34;101539.16;4141363;28;20134;-61
2022/10/03 00:39:31;;;;;;;10.45;6.68;;;;;;;12.10;83.58;101540.84;4155719;28;20399;-61
2022/10/03 00:42:07;;;;;;;5.82;4.70;;;;;;;12.08;83.57;101545.13;4157104;28;20065;-61
2022/10/03 00:44:43;;;;;;;10.45;6.22;;;;;;;12.08;83.65;101539.94;4148523;28;20062;-61
2022/10/03 00:47:09;;;;;;;9.63;6.10;;;;;;;12.11;83.36;101546.94;4160887;28;20041;-61
2022/10/03 00:49:32;;;;;;;;;;;;;;;11.97;83.54;101543.97;4155974;28;20038;-61
2022/10/03 00:51:48;;;;;;;6.88;5.75;;;;;;;12.04;83.74;101546.78;4164048;28;19921;-61
2022/10/03 00:54:02;;;;;;;8.38;6.00;;;;;;;12.09;83.67;101549.50;4165642;28;20145;-61
2022/10/03 00:56:35;;;;;;;7.80;5.20;;;;;;;12.09;83.18;101549.50;4163405;28;20044;-61
2022/10/03 00:58:52;;;;;;;8.35;5.50;;;;;;;12.07;83.22;101548.56;4147284;28;20041;-61
2022/10/03 01:00:59;;;;;;;6.03;4.88;;;;;;;12.06;83.36;101549.41;4149239;28;20041;-61
2022/10/03 01:03:16;;;;;;;8.15;5.43;;;;;;;12.05;83.22;101558.09;4166781;28;20049;-61
2022/10/03 01:05:33;;;;;;;9.45;6.07;;;;;;;12.03;83.54;101559.75;4161863;28;20387;-61
2022/10/03 01:07:53;;;;;;;10.98;5.50;;;;;;;12.03;83.08;101554.53;4160347;28;20538;-61
2022/10/03 01:10:08;;;;;;;8.10;5.65;;;;;;;12.03;82.96;101560.66;4166603;28;20125;-61
2022/10/03 01:12:26;;;;;;;8.77;4.85;;;;;;;12.00;83.08;101565.81;4166647;28;20037;-61
2022/10/03 01:14:55;;;;;;;8.75;4.30;;;;;;;12.00;83.03;101562.28;4148118;28;20527;-61
2022/10/03 01:17:11;;;;;;;11.32;6.30;;;;;;;11.98;83.16;101561.38;4155962;28;20053;-61
2022/10/03 01:19:46;;;;;;;14.52;6.00;;;;;;;11.98;82.68;101561.38;4163337;28;20052;-61
2022/10/03 01:22:00;;;;;;;11.55;6.32;;;;;;;11.97;82.47;101573.53;4166305;28;20046;-61
2022/10/03 01:24:34;;;;;;;8.25;5.00;;;;;;;11.94;82.80;101575.16;4165331;28;20041;-61
2022/10/03 01:26:51;;;;;;;10.20;5.78;;;;;;;11.93;82.86;101573.34;4146881;28;20504;-61
2022/10/03 01:31:28;;;;;;;7.35;4.65;;;;;;;11.91;82.90;101582.88;4154431;28;20037;-61
2022/10/03 01:33:36;;;;;;;9.85;5.70;;;;;;;11.92;82.32;101587.25;4165546;28;20037;-61
2022/10/03 01:35:54;;;;;;;11.43;6.88;;;;;;;11.91;82.11;101581.13;4161901;28;20037;-61
2022/10/03 01:38:07;;;;;;;9.85;6.22;;;;;;;11.87;82.40;101579.28;4158015;28;20450;-61
2022/10/03 01:40:17;;;;;;;6.38;5.05;;;;;;;11.82;82.32;101579.16;4141594;28;20474;-61
2022/10/03 01:42:35;;;;;;;9.75;6.13;;;;;;;11.79;82.24;101578.22;4166254;28;20045;-61
2022/10/03 01:44:55;;;;;;;7.32;4.78;;;;;;;11.74;81.91;101580.69;4165624;28;20639;-61
2022/10/03 01:47:09;;;;;;;14.15;6.45;;;;;;;11.67;82.28;101587.44;4143006;28;20068;-61
2022/10/03 01:49:20;;;;;;;6.07;4.60;;;;;;;11.65;81.86;101591.75;4166016;28;20037;-61
2022/10/03 01:51:29;;;;;;;9.48;6.20;;;;;;;11.62;81.95;101591.66;4166152;28;20084;-61
2022/10/03 01:53:48;;;;;;;10.52;5.40;;;;;;;11.61;82.35;101599.41;4165177;28;20038;-61
2022/10/03 01:55:59;;;;;;;11.38;6.45;;;;;;;11.58;82.62;101599.31;4156901;28;20045;-61
2022/10/03 01:58:08;;;;;;;9.95;6.45;;;;;;;11.58;82.04;101594.13;4162929;28;20042;-61
2022/10/03 02:00:16;;;;;;;12.13;7.03;;;;;;;11.59;81.79;101593.28;4165237;28;20045;-61
2022/10/03 02:02:30;;;;;;;9.48;6.15;;;;;;;11.58;82.35;101599.31;4148244;28;20044;-61
2022/10/03 02:04:45;;;;;;;9.60;6.05;;;;;;;11.57;81.78;101594.97;4164327;28;20041;-62
2022/10/03 02:06:58;;;;;;;13.18;6.90;;;;;;;11.57;82.14;101598.44;4165065;28;20456;-61
2022/10/03 02:09:09;;;;;;;9.63;6.18;;;;;;;11.57;81.91;101606.25;4149712;28;20042;-61
2022/10/03 02:11:26;;;;;;;10.23;6.30;;;;;;;11.56;82.15;101599.28;4164683;28;20049;-62
2022/10/03 02:13:43;;;;;;;12.60;7.88;;;;;;;11.63;81.45;101600.34;4164933;28;20037;-62
2022/10/03 02:15:57;;;;;;;12.25;7.93;;;;;;;11.65;81.24;101594.34;4146468;28;20041;-61
2022/10/03 02:18:11;;;;;;;16.23;7.93;;;;;;;11.71;80.71;101598.84;4157321;28;20069;-61
2022/10/03 02:20:26;;;;;;;11.50;6.40;;;;;;;11.70;80.96;101600.56;4149310;28;20112;-61
2022/10/03 02:22:33;;;;;;;15.00;7.85;;;;;;;11.71;81.28;101598.84;4132087;28;20222;-61
2022/10/03 02:24:49;;;;;;;14.55;7.85;;;;;;;11.74;81.00;101596.34;4164048;28;20148;-61
2022/10/03 02:27:21;;;;;;;;;;;;;;;11.56;81.09;101596.69;4147435;28;20148;-61
2022/10/03 02:29:51;;;;;;;13.30;6.97;;;;;;;11.58;81.65;101599.31;4162103;28;19929;-61
2022/10/03 02:32:43;;;;;;;10.82;6.57;;;;;;;11.58;81.44;101597.63;4106476;28;20553;-64
2022/10/03 02:35:25;;;;;;;9.43;6.43;;;;;;;11.54;81.89;101598.38;4139017;28;20061;-61
2022/10/03 02:37:50;;;;;;;11.93;7.93;;;;;;;11.52;81.80;101600.94;4161228;28;20107;-62
2022/10/03 02:40:32;;;;;;;7.90;6.05;;;;;;;11.43;81.70;101598.03;4140460;28;20046;-62
2022/10/03 02:43:26;;;;;;;12.25;7.53;;;;;;;11.39;81.70;101598.81;4139126;28;20050;-61
2022/10/03 02:46:06;;;;;;;18.85;9.20;;;;;;;11.36;82.15;101590.91;4152655;28;20077;-61
2022/10/03 02:48:32;;;;;;;11.80;7.00;;;;;;;11.34;81.82;101596.06;4154556;28;20479;-62
2022/10/03 02:50:57;;;;;;;11.00;7.55;;;;;;;11.39;81.90;101596.22;4131974;28;20074;-61
2022/10/03 02:53:47;;;;;;;11.82;7.32;;;;;;;11.33;81.30;101593.41;4165226;28;20041;-62
2022/10/03 02:56:20;;;;;;;9.95;6.72;;;;;;;11.27;81.88;101591.53;4146334;28;20049;-62
2022/10/03 02:59:00;;;;;;;15.57;8.60;;;;;;;11.29;81.45;101596.78;4161012;28;20502;-61
2022/10/03 03:01:42;;;;;;;13.30;7.82;;;;;;;11.22;81.32;101592.22;4146099;28;20385;-61
2022/10/03 03:04:15;;;;;;;15.77;9.45;;;;;;;11.19;81.05;101595.63;4129768;28;20447;-61
2022/10/03 03:06:38;;;;;;;12.32;8.55;;;;;;;11.20;81.53;101600.00;4144441;28;20463;-61
2022/10/03 03:09:17;;;;;;;14.48;8.25;;;;;;;11.23;80.70;101601.78;4156500;28;20037;-62
2022/10/03 03:11:46;;;;;;;12.02;8.52;;;;;;;11.13;81.08;101604.13;4142719;28;20042;-61
2022/10/03 03:14:15;;;;;;;11.95;7.75;;;;;;;11.15;81.41;101611.97;4157605;28;20041;-61
2022/10/03 03:16:42;;;;;;;14.63;8.48;;;;;;;11.17;81.11;101616.38;4160673;28;20081;-61
2022/10/03 03:19:03;;;;;;;9.68;7.10;;;;;;;11.13;80.87;101618.88;4139190;28;20500;-61
2022/10/03 03:21:21;;;;;;;9.95;7.65;;;;;;;11.10;80.89;101619.63;4162240;28;20045;-61
2022/10/03 03:23:44;;;;;;;12.13;8.30;;;;;;;11.10;80.93;101624.84;4163758;28;20033;-61
2022/10/03 03:26:04;;;;;;;11.00;7.78;;;;;;;11.11;81.47;101629.22;4164559;28;20088;-61
2022/10/03 03:28:23;;;;;;;12.65;7.55;;;;;;;11.10;80.58;101627.44;4154887;28;20044;-61
2022/10/03 03:30:32;;;;;;;10.18;7.18;;;;;;;11.09;81.27;101628.28;4131629;28;20077;-61
2022/10/03 03:32:49;;;;;;;12.15;8.73;;;;;;;11.09;81.48;101632.59;4163515;28;20044;-61
2022/10/03 03:35:04;;;;;;;10.93;8.13;;;;;;;11.14;80.62;101636.22;4147570;28;20065;-61
2022/10/03 03:37:15;;;;;;;9.75;7.22;;;;;;;11.08;80.95;101636.94;4153222;28;20041;-61
2022/10/03 03:39:34;;;;;;;10.68;7.82;;;;;;;11.06;80.55;101633.38;4156809;28;20033;-61
2022/10/03 03:41:56;;;;;;;12.98;8.02;;;;;;;11.04;80.89;101631.56;4164075;28;20045;-61
2022/10/03 03:44:19;;;;;;;10.23;7.10;;;;;;;11.02;81.29;101628.03;4163470;28;20495;-61
2022/10/03 03:46:37;;;;;;;11.80;8.27;;;;;;;10.97;80.65;101628.78;4155518;28;20057;-61
2022/10/03 03:49:02;;;;;;;15.65;8.27;;;;;;;10.97;80.75;101627.91;4152116;28;20050;-61
2022/10/03 03:51:21;;;;;;;10.63;8.23;;;;;;;10.94;80.55;101633.91;4164426;28;20514;-61
2022/10/03 03:54:03;;;;;;;11.07;7.60;;;;;;;10.91;81.19;101630.31;4155893;28;20104;-62
2022/10/03 03:56:28;;;;;;;12.73;6.57;;;;;;;10.87;81.04;101631.94;4152835;28;20483;-61
2022/10/03 03:58:38;;;;;;;11.38;8.13;;;;;;;10.82;81.21;101637.00;4134517;28;20046;-61
2022/10/03 04:00:55;;;;;;;12.48;7.13;;;;;;;10.83;81.60;101641.38;4148063;28;20038;-61
2022/10/03 04:03:11;;;;;;;11.38;7.53;;;;;;;10.79;81.06;101642.09;4148027;28;20046;-61
2022/10/03 04:05:27;;;;;;;9.55;7.90;;;;;;;10.81;81.19;101642.16;4151717;28;20063;-61
2022/10/03 04:07:47;;;;;;;15.82;8.25;;;;;;;10.81;80.75;101645.63;4138619;28;20030;-61
2022/10/03 04:10:10;;;;;;;12.40;7.47;;;;;;;10.79;80.12;101646.41;4162993;28;21279;-61
2022/10/03 04:12:28;;;;;;;10.38;7.55;;;;;;;10.75;80.78;101650.63;4164243;28;20057;-61
2022/10/03 04:14:54;;;;;;;13.25;8.43;;;;;;;10.77;80.37;101651.56;4162986;28;20075;-61
2022/10/03 04:19:50;;;;;;;11.70;7.93;;;;;;;10.69;81.08;101655.63;4143816;28;20030;-61
2022/10/03 04:22:11;;;;;;;11.35;7.88;;;;;;;10.69;80.36;101653.03;4155740;28;20095;-61
2022/10/03 04:24:31;;;;;;;10.40;7.97;;;;;;;10.71;81.26;101658.28;4145458;28;20045;-61
2022/10/03 04:26:58;;;;;;;14.23;8.00;;;;;;;10.70;81.38;101659.97;4144594;28;20038;-61
2022/10/03 04:29:23;;;;;;;16.33;9.70;;;;;;;10.69;81.04;101659.94;4163997;28;20450;-61
2022/10/03 04:31:42;;;;;;;15.60;10.23;;;;;;;10.64;80.77;101663.28;4146271;28;20049;-61
2022/10/03 04:34:02;;;;;;;12.00;9.30;;;;;;;10.63;80.75;101661.50;4163031;28;20069;-61
2022/10/03 04:36:36;;;;;;;13.07;9.43;;;;;;;10.60;81.32;101668.31;4159811;28;20095;-61
2022/10/03 04:38:49;;;;;;;10.07;7.90;;;;;;;10.55;81.16;101675.09;4155764;28;20042;-61
2022/10/03 04:41:02;;;;;;;12.50;8.00;;;;;;;10.55;80.88;101667.28;4158335;28;20041;-61
2022/10/03 04:43:14;;;;;;;12.63;8.55;;;;;;;10.48;81.67;101661.88;4163301;28;20076;-61
2022/10/03 04:45:35;;;;;;;11.80;7.85;;;;;;;10.51;80.96;101662.81;4153452;28;20491;-61
2022/10/03 04:47:46;;;;;;;13.80;9.20;;;;;;;10.50;80.61;101666.25;4154498;28;20037;-61
2022/10/03 04:49:57;;;;;;;12.23;8.52;;;;;;;10.44;81.14;101654.81;4158014;28;20042;-61
2022/10/03 04:52:06;;;;;;;11.57;8.30;;;;;;;10.45;81.15;101663.50;4151772;28;20046;-61
2022/10/03 04:54:22;;;;;;;12.95;9.07;;;;;;;10.46;81.25;101654.88;4151509;28;20324;-61
2022/10/03 04:56:33;;;;;;;;;;;;;;;10.32;81.31;101659.53;4154607;28;20095;-61
2022/10/03 04:58:41;;;;;;;14.30;9.20;;;;;;;10.39;81.14;101658.97;4164003;28;20389;-61
2022/10/03 05:00:57;;;;;;;11.15;8.82;;;;;;;10.45;80.50;101661.78;4163889;28;20418;-61
2022/10/03 05:03:06;;;;;;;11.73;8.98;;;;;;;10.43;80.64;101660.84;4163767;28;20045;-61
2022/10/03 05:05:23;;;;;;;12.77;8.10;;;;;;;10.47;80.56;101659.25;4144951;28;20046;-61
2022/10/03 05:07:40;;;;;;;11.27;8.98;;;;;;;10.48;80.47;101661.00;4150496;28;20104;-61
2022/10/03 05:09:52;;;;;;;11.20;8.43;;;;;;;10.47;80.15;101665.31;4151996;28;20173;-61
2022/10/03 05:12:07;;;;;;;11.65;8.30;;;;;;;10.45;80.23;101673.88;4146014;28;20112;-61
2022/10/03 05:14:21;;;;;;;9.48;7.15;;;;;;;10.39;80.13;101668.47;4158839;28;20060;-61
2022/10/03 05:16:35;;;;;;;12.50;8.53;;;;;;;10.37;79.62;101665.84;4155834;28;20038;-62
2022/10/03 05:18:46;;;;;;;12.13;7.50;;;;;;;10.34;80.06;101670.03;4161585;28;20495;-61
2022/10/03 05:20:56;;;;;;;11.57;8.20;;;;;;;10.38;79.93;101682.31;4163356;28;20049;-61
2022/10/03 05:23:14;;;;;;;12.35;7.53;;;;;;;10.35;80.23;101688.28;4145629;28;20125;-61
2022/10/03 05:25:34;;;;;;;12.73;7.95;;;;;;;10.34;80.44;101683.94;4156100;28;20149;-61
2022/10/03 05:27:44;;;;;;;8.93;7.00;;;;;;;10.31;81.22;101692.47;4150598;28;20058;-61
2022/10/03 05:29:57;;;;;;;10.38;7.72;;;;;;;10.33;81.35;101684.72;4162723;28;20485;-61
2022/10/03 05:32:13;;;;;;;12.68;8.57;;;;;;;10.34;80.59;101688.22;4163308;28;20041;-61
2022/10/03 05:34:29;;;;;;;12.10;7.85;;;;;;;10.34;81.17;101685.63;4157635;28;20049;-61
2022/10/03 05:36:45;;;;;;;12.73;8.43;;;;;;;10.35;80.10;101685.66;4155339;28;20041;-61
2022/10/03 05:39:20;;;;;;;11.48;8.30;;;;;;;10.34;80.95;101696.03;4156278;28;20403;-61
2022/10/03 05:41:29;;;;;;;11.52;8.10;;;;;;;10.31;80.90;101691.59;4165217;28;20046;-61
2022/10/03 05:43:46;;;;;;;11.18;7.07;;;;;;;10.27;81.05;101690.56;4146553;28;20041;-61
2022/10/03 05:45:56;;;;;;;8.13;6.32;;;;;;;10.28;81.49;101701.88;4148371;28;20092;-61
2022/10/03 05:48:14;;;;;;;11.90;8.00;;;;;;;10.29;80.80;101703.63;4144626;28;20400;-61
2022/10/03 05:50:41;;;;;;;10.68;7.20;;;;;;;10.30;81.06;101705.41;4164856;28;20038;-60
2022/10/03 05:52:58;;;;;;;11.00;7.40;;;;;;;10.31;81.40;101708.06;4144954;28;20054;-62
2022/10/03 05:55:15;;;;;;;9.68;7.32;;;;;;;10.31;81.59;101708.06;4155406;28;20049;-62
2022/10/03 05:57:37;;;;;;;11.18;7.22;;;;;;;10.35;80.94;101703.88;4164900;28;20045;-62
2022/10/03 05:59:58;;;;;;;11.38;7.43;;;;;;;10.36;81.63;101709.97;4140122;28;20555;-62
2022/10/03 06:02:28;;;;;;;14.95;8.13;;;;;;;10.35;81.34;101713.38;4147875;28;20037;-62
2022/10/03 06:05:10;;;;;;;12.95;8.75;;;;;;;10.33;80.80;101715.91;4157073;28;20041;-62
2022/10/03 06:07:23;;;;;;;13.63;8.52;;;;;;;10.32;81.22;101729.72;4145118;28;20050;-61
2022/10/03 06:10:04;;;;;;;13.43;8.00;;;;;;;10.34;81.55;101729.81;4157856;28;20104;-62
2022/10/03 06:12:13;;;;;;;14.27;8.45;;;;;;;10.34;81.35;101735.00;4129498;28;20053;-62
2022/10/03 06:14:33;;;;;;;15.73;9.10;;;;;;;10.36;81.40;101742.03;4164823;28;20180;-62
2022/10/03 06:16:44;;;;;;;12.73;8.00;;;;;;;10.34;82.38;101743.72;4165726;28;20046;-61
2022/10/03 06:19:05;;;;;;;13.68;8.35;;;;;;;10.34;81.83;101748.91;4143352;28;20039;-62
2022/10/03 06:21:32;;;;;;;21.05;8.75;;;;;;;10.34;82.44;101754.09;4161154;28;20092;-61
2022/10/03 06:23:57;;;;;;;11.73;8.40;;;;;;;10.38;82.29;101750.78;4158880;28;20046;-62
2022/10/03 06:26:24;;;;;;;12.43;7.67;;;;;;;10.40;81.68;101758.66;4151264;28;20053;-62
2022/10/03 06:29:04;;;;;;;14.60;8.93;;;;;;;10.40;81.74;101756.91;4154027;28;20805;-61
2022/10/03 06:31:42;;;;;;;15.38;8.48;;;;;;;10.42;81.41;101769.97;4147896;28;20042;-61
2022/10/03 06:34:19;;;;;;;14.10;7.90;;;;;;;10.45;81.36;101764.88;4160121;28;20069;-61
2022/10/03 06:36:37;;;;;;;10.05;7.00;;;;;;;10.45;81.58;101773.59;4145579;28;20057;-61
2022/10/03 06:39:22;;;;;;;12.80;8.77;;;;;;;10.46;81.76;101769.25;4154858;28;20083;-61
2022/10/03 06:42:05;;;;;;;14.85;8.00;;;;;;;10.45;81.32;101778.78;4128096;28;20562;-62
2022/10/03 06:44:26;;;;;;;11.00;7.05;;;;;;;10.46;82.11;101774.47;4131120;28;20046;-61
2022/10/03 06:47:14;;;;;;;9.15;6.90;;;;;;;10.48;81.82;101759.78;4153262;28;20136;-61
2022/10/03 06:49:59;;;;;;;10.70;6.32;;;;;;;10.52;82.41;101763.41;4150962;28;20045;-61
2022/10/03 06:52:24;;;;;;;15.27;8.68;;;;;;;10.57;81.69;101764.44;4149738;28;20059;-61
2022/10/03 06:55:16;;;;;;;12.75;7.90;;;;;;;10.57;82.25;101767.03;4147040;28;20042;-61
2022/10/03 06:57:33;;;;;;;18.15;9.25;;;;;;;10.58;81.87;101761.00;4125537;28;20532;-62
2022/10/03 06:59:52;;;;;;;11.70;8.55;;;;;;;10.62;81.24;101768.09;4126968;28;20046;-61
2022/10/03 07:02:15;;;;;;;12.15;7.57;;;;;;;10.68;81.79;101760.50;4164670;28;20038;-61
2022/10/03 07:04:54;;;;;;;17.75;8.27;;;;;;;10.68;81.81;101760.50;4145042;28;20143;-61
2022/10/03 07:07:18;;;;;;;12.57;7.82;;;;;;;10.71;82.24;101760.59;4156390;28;20041;-61
2022/10/03 07:09:59;;;;;;;13.82;7.38;;;;;;;10.72;81.40;101766.66;4162266;28;20465;-62
2022/10/03 07:12:32;;;;;;;12.32;7.85;;;;;;;10.76;81.94;101772.06;4154465;28;20384;-62
2022/10/03 07:15:13;;;;;;;14.23;8.35;;;;;;;10.81;82.27;101761.81;4145401;28;20061;-61
2022/10/03 07:17:36;;;;;;;14.60;7.75;;;;;;;10.85;81.57;101753.28;4149535;28;20056;-61
2022/10/03 07:20:03;;;;;;;14.98;8.35;;;;;;;10.89;82.05;101760.31;4161548;28;20168;-62
2022/10/03 07:23:05;;;;;;;12.57;7.70;;;;;;;10.92;82.28;101759.56;4156142;28;20064;-62
2022/10/03 07:25:47;;;;;;;14.68;8.40;;;;;;;10.99;81.69;101764.13;4151774;28;20563;-61
2022/10/03 07:28:08;;;;;;;11.20;8.95;;;;;;;11.06;81.96;101765.25;4143770;28;20097;-61
2022/10/03 07:30:17;;;;;;;12.48;7.47;;;;;;;11.11;82.05;101763.66;4146903;28;20411;-61
2022/10/03 07:32:43;;;;;;;17.10;9.75;;;;;;;11.15;82.21;101766.41;4155512;28;20120;-61
2022/10/03 07:35:21;;;;;;;20.10;12.30;;;;;;;11.29;81.55;101773.81;4142329;28;20073;-61
2022/10/03 07:40:24;;;;;;;22.95;13.48;;;;;;;11.36;81.11;101778.38;4162908;28;20549;-61
2022/10/03 07:42:44;;;;;;;;;;;;;;;11.28;82.29;101785.03;4164759;28;20113;-61
2022/10/03 07:45:29;;;;;;;15.90;11.02;;;;;;;11.37;82.23;101792.28;4158772;28;19956;-61
2022/10/03 07:48:05;;;;;;;15.55;9.95;;;;;;;11.46;81.80;101795.16;4155230;28;20041;-61
2022/10/03 07:50:30;;;;;;;18.30;11.10;;;;;;;11.45;81.94;101796.88;4159193;28;20096;-61
2022/10/03 07:52:53;;;;;;;17.42;11.25;;;;;;;11.49;82.21;101803.97;4148096;28;20092;-61
2022/10/03 07:55:25;;;;;;;13.95;9.68;;;;;;;11.52;82.16;101804.06;4149645;28;20053;-61
2022/10/03 07:57:47;;;;;;;16.40;11.00;;;;;;;11.57;82.58;101804.22;4155262;28;20038;-61
2022/10/03 08:00:13;;;;;;;14.10;9.95;;;;;;;11.61;82.41;101795.66;4147930;28;20042;-61
2022/10/03 08:02:37;;;;;;;17.08;10.77;;;;;;;11.66;82.25;101803.63;4151110;28;20061;-61
2022/10/03 08:05:07;;;;;;;18.38;14.15;;;;;;;11.76;81.76;101790.03;4162214;28;20045;-61
2022/10/03 08:07:29;;;;;;;28.13;15.95;;;;;;;11.79;82.59;101797.94;4149256;28;20041;-61
2022/10/03 08:09:58;;;;;;;25.00;14.45;;;;;;;11.81;82.49;101798.00;4155970;28;20033;-62
2022/10/03 08:12:47;;;;;;;22.52;15.63;;;;;;;11.88;82.74;101806.06;4150504;28;20049;-61
2022/10/03 08:15:03;;;;;;;17.67;12.15;;;;;;;11.93;82.40;101801.03;4144570;28;20369;-61
2022/10/03 08:17:56;;;;;;;15.95;11.55;;;;;;;11.95;82.27;101801.94;4152055;28;20087;-61
2022/10/03 08:20:23;;;;;;;20.15;14.02;;;;;;;11.92;83.12;101798.34;4148152;28;20049;-61
2022/10/03 08:22:41;;;;;;;18.88;14.20;;;;;;;11.87;83.30;101798.16;4144618;28;20104;-61
2022/10/03 08:25:20;;;;;;;17.90;12.70;;;;;;;11.78;83.27;101798.78;4161709;28;20403;-61
2022/10/03 08:27:39;;;;;;;22.45;12.45;;;;;;;11.76;83.45;101800.47;4151224;28;20030;-61
2022/10/03 08:30:04;;;;;;;24.13;15.00;;;;;;;11.74;83.48;101807.34;4159597;28;20033;-61
2022/10/03 08:32:51;;;;;;;20.87;14.37;;;;;;;11.70;83.88;101805.47;4164204;28;20091;-61
2022/10/03 08:35:16;;;;;;;23.05;14.50;;;;;;;11.64;84.04;101813.13;4162748;28;20292;-61
2022/10/03 08:38:12;;;;;;;23.27;17.17;;;;;;;11.68;83.98;101812.34;4159175;28;20088;-61
2022/10/03 08:40:52;;;;;;;24.05;17.25;;;;;;;11.73;84.18;101809.91;4100260;28;20110;-61
2022/10/03 08:43:29;;;;;;;22.48;15.27;;;;;;;11.88;84.12;101806.06;4155185;28;20045;-62
2022/10/03 08:45:50;;;;;;;;;;;;;;;11.93;84.46;101803.63;4161877;28;20041;-64
2022/10/03 08:48:39;;;;;;;19.50;13.85;;;;;;;12.14;83.72;101800.75;4163584;28;19921;-68
2022/10/03 08:51:12;;;;;;;22.98;16.60;;;;;;;12.28;83.39;101798.56;4144701;28;20049;-62
2022/10/03 08:53:53;;;;;;;28.25;18.20;;;;;;;12.41;82.61;101799.78;4134498;28;20519;-62
2022/10/03 08:56:06;;;;;;;27.85;19.90;;;;;;;12.70;80.95;101795.38;4155321;28;20060;-62
2022/10/03 08:58:52;;;;;;;29.02;19.48;;;;;;;12.83;78.86;101798.31;4162889;28;20042;-62
2022/10/03 09:01:22;;;;;;;26.50;19.27;;;;;;;12.68;79.73;101801.41;4125311;28;20065;-62
2022/10/03 09:04:06;;;;;;;26.20;19.52;;;;;;;12.75;79.70;101798.13;4153149;28;20042;-62
2022/10/03 09:06:46;;;;;;;25.85;17.75;;;;;;;12.80;79.82;101801.72;4097279;29;20047;-62
2022/10/03 09:09:26;;;;;;;20.08;15.05;;;;;;;12.87;80.20;101797.56;4154723;28;20091;-63
2022/10/03 09:11:48;;;;;;;23.55;16.88;;;;;;;12.97;80.32;101799.56;4139521;28;20455;-62
2022/10/03 09:14:26;;;;;;;23.63;16.17;;;;;;;13.06;79.64;101793.69;4135216;28;20306;-62
2022/10/03 09:17:07;;;;;;;25.60;18.42;;;;;;;13.10;79.84;101785.09;4166070;28;20045;-62
2022/10/03 09:19:41;;;;;;;22.70;15.23;;;;;;;13.20;79.88;101796.63;4149305;28;20538;-62
2022/10/03 09:22:16;;;;;;;22.08;15.65;;;;;;;13.28;79.71;101790.75;4156753;28;20458;-62
2022/10/03 09:24:59;;;;;;;19.55;14.65;;;;;;;13.38;79.30;101801.47;4165448;28;20046;-62
2022/10/03 09:27:30;;;;;;;28.83;16.70;;;;;;;13.50;78.90;101791.31;4131077;28;20404;-62
2022/10/03 09:30:00;;;;;;;23.50;15.52;;;;;;;13.61;78.79;101795.06;4141781;28;20093;-62
2022/10/03 09:32:33;;;;;;;21.60;14.80;;;;;;;13.72;78.80;101794.44;4148288;28;20108;-62
2022/10/03 09:35:23;;;;;;;24.30;16.10;;;;;;;13.79;78.17;101799.81;4164008;28;20091;-62
2022/10/03 09:37:58;;;;;;;26.15;15.18;;;;;;;13.83;77.28;101790.34;4149604;28;20046;-62
2022/10/03 09:40:52;;;;;;;20.43;14.03;;;;;;;13.98;77.43;101804.59;4114118;28;20088;-62
2022/10/03 09:43:13;;;;;;;21.48;14.40;;;;;;;14.08;77.90;101799.59;4164520;28;20808;-62
2022/10/03 09:46:01;;;;;;;18.95;15.20;;;;;;;14.16;77.01;101799.72;4158006;28;20124;-62
2022/10/03 09:48:37;;;;;;;19.88;14.80;;;;;;;14.23;77.19;101793.78;4151527;28;20079;-62
2022/10/03 09:51:16;;;;;;;19.57;15.67;;;;;;;14.28;77.14;101793.88;4156927;28;20045;-62
2022/10/03 09:53:44;;;;;;;24.98;19.05;;;;;;;14.25;78.41;101796.44;4151275;28;20301;-62
2022/10/03 09:56:11;;;;;;;22.80;16.27;;;;;;;14.32;77.72;101793.09;4153107;28;20427;-62
2022/10/03 09:58:59;;;;;;;21.33;15.43;;;;;;;14.38;76.38;101792.34;4151459;28;20041;-62
2022/10/03 10:01:17;;;;;;;27.45;17.75;;;;;;;14.60;73.39;101797.16;4153773;28;20065;-61
2022/10/03 10:04:07;;;;;;;20.63;13.75;;;;;;;14.57;72.42;101794.47;4164674;28;20041;-61
2022/10/03 10:06:34;;;;;;;21.75;13.20;;;;;;;14.57;73.33;101791.88;4165773;28;20050;-61
2022/10/03 10:09:08;;;;;;;19.77;13.60;;;;;;;14.67;74.15;101800.78;4144877;28;20428;-62
2022/10/03 10:11:28;;;;;;;21.55;13.38;;;;;;;14.83;73.43;101800.22;4159173;28;20124;-61
2022/10/03 10:14:09;;;;;;;27.10;16.73;;;;;;;15.13;68.28;101790.25;4147633;28;20053;-61
2022/10/03 10:16:39;;;;;;;18.10;11.73;;;;;;;14.86;70.38;101793.28;4156807;28;20502;-61
2022/10/03 10:19:24;;;;;;;20.70;11.65;;;;;;;14.97;70.86;101796.97;4157553;28;20411;-61
2022/10/03 10:21:49;;;;;;;15.75;9.80;;;;;;;15.11;68.26;101798.09;4162056;28;20037;-61
2022/10/03 10:24:09;;;;;;;17.35;11.18;;;;;;;14.87;69.04;101795.06;4163098;28;20108;-61
2022/10/03 10:26:46;;;;;;;19.23;9.32;;;;;;;14.80;69.08;101788.81;4164019;28;20056;-62
2022/10/03 10:29:18;;;;;;;12.65;6.63;;;;;;;14.58;66.49;101785.75;4157388;28;20041;-62
2022/10/03 10:32:03;;;;;;;12.35;6.53;;;;;;;14.44;68.07;101780.28;4149264;28;20053;-62
2022/10/03 10:34:55;;;;;;;11.00;4.70;;;;;;;14.38;66.45;101780.13;4152535;28;20037;-62
2022/10/03 10:37:29;;;;;;;12.32;5.03;;;;;;;14.40;66.66;101782.81;4149296;28;20041;-62
2022/10/03 10:40:05;;;;;;;5.55;3.03;;;;;;;14.39;65.64;101775.78;4131411;28;20046;-61
2022/10/03 10:42:47;;;;;;;10.85;5.35;;;;;;;14.35;66.61;101771.34;4143494;28;20049;-62
2022/10/03 10:45:35;;;;;;;12.05;3.80;;;;;;;14.35;65.00;101771.34;4128457;28;20107;-62
2022/10/03 10:48:33;;;;;;;7.28;3.25;;;;;;;14.30;65.64;101777.38;4131701;28;20062;-62
2022/10/03 10:51:13;;;;;;;11.23;3.97;;;;;;;14.35;68.14;101773.97;4152930;28;20116;-62
2022/10/03 10:53:53;;;;;;;9.05;4.57;;;;;;;14.61;69.07;101775.38;4137784;28;20641;-62
2022/10/03 10:56:41;;;;;;;7.72;3.22;;;;;;;14.70;70.25;101771.16;4138588;28;20499;-62
2022/10/03 10:59:24;;;;;;;7.85;3.42;;;;;;;14.69;68.34;101775.53;4156687;28;20406;-62
2022/10/03 11:02:00;;;;;;;6.95;3.13;;;;;;;14.71;67.06;101781.66;4155436;28;20037;-62
2022/10/03 11:04:51;;;;;;;7.95;3.08;;;;;;;14.77;64.87;101780.91;4126891;28;20069;-62
2022/10/03 11:07:15;;;;;;;6.53;2.50;;;;;;;14.99;65.50;101783.03;4144195;28;20050;-62
2022/10/03 11:09:49;;;;;;;8.02;3.00;;;;;;;15.25;67.18;101779.97;4158653;28;20076;-62
2022/10/03 11:12:37;;;;;;;8.98;3.53;;;;;;;15.29;65.31;101781.78;4148935;28;20046;-62
2022/10/03 11:15:17;;;;;;;9.30;3.35;;;;;;;15.32;65.27;101773.09;4144807;28;20073;-61
2022/10/03 11:17:40;;;;;;;12.40;3.38;;;;;;;15.31;63.96;101771.34;4151033;28;20037;-62
2022/10/03 11:20:17;;;;;;;8.90;3.22;;;;;;;15.25;63.37;101766.00;4131067;28;20476;-63